Time;durP1;ratioP1;P1;durP2;ratioP2;P2;SDS_P1;SDS_P2;PMS_P1;PMS_P2;Temp;Humidity;BMP_temperature;BMP_pressure;BME280_temperature;BME280_humidity;BME280_pressure;Samples;Min_cycle;Max_cycle;Signal;HPM_P1;HPM_P2
2021/03/31 00:01:36;;;;;;;8.95;3.10;;;;;;;20.92;40.12;100426.53;5030645;28;20059;-64
2021/03/31 00:04:02;;;;;;;16.70;4.68;;;;;;;20.90;40.17;100423.22;5038858;28;20053;-65
2021/03/31 00:06:29;;;;;;;6.60;3.60;;;;;;;20.96;39.86;100426.66;5031581;28;20055;-66
2021/03/31 00:08:55;;;;;;;18.80;3.42;;;;;;;20.90;39.76;100406.19;5033221;28;20108;-66
2021/03/31 00:11:22;;;;;;;12.00;3.63;;;;;;;20.99;39.72;100400.38;5038868;28;20041;-66
2021/03/31 00:13:48;;;;;;;3.08;2.10;;;;;;;21.01;39.74;100413.03;5033045;28;20049;-67
2021/03/31 00:16:15;;;;;;;7.65;3.22;;;;;;;21.01;39.50;100395.19;5033784;28;20403;-68
2021/03/31 00:18:41;;;;;;;8.98;2.67;;;;;;;21.04;39.41;100398.16;5032936;28;20045;-66
2021/03/31 00:21:09;;;;;;;4.90;1.92;;;;;;;20.98;39.26;100396.72;5030284;28;20477;-67
2021/03/31 00:23:35;;;;;;;7.68;2.60;;;;;;;21.05;39.32;100390.44;5033521;28;20124;-68
2021/03/31 00:26:02;;;;;;;12.98;3.42;;;;;;;21.07;39.25;100376.72;5039616;28;20049;-67
2021/03/31 00:28:28;;;;;;;6.82;3.17;;;;;;;21.11;38.77;100389.03;5032285;28;20422;-67
2021/03/31 00:30:56;;;;;;;9.25;1.90;;;;;;;21.04;38.86;100372.59;5038730;28;20049;-66
2021/03/31 00:33:23;;;;;;;7.18;2.97;;;;;;;21.13;38.56;100371.63;5030878;28;20119;-66
2021/03/31 00:35:49;;;;;;;13.32;3.95;;;;;;;21.05;38.81;100357.19;5031772;28;20437;-69
2021/03/31 00:38:16;;;;;;;13.18;3.28;;;;;;;21.18;38.49;100360.88;5029959;28;20475;-67
2021/03/31 00:40:48;;;;;;;9.20;2.47;;;;;;;21.08;38.31;100355.66;5030090;28;20052;-66
2021/03/31 00:43:20;;;;;;;7.63;2.70;;;;;;;21.19;38.16;100353.16;5032861;28;20050;-66
2021/03/31 00:45:47;;;;;;;15.00;3.55;;;;;;;21.09;37.93;100328.09;5034248;28;20044;-65
2021/03/31 00:48:15;;;;;;;9.95;3.25;;;;;;;21.25;37.99;100351.75;5035419;28;20056;-66
2021/03/31 00:51:01;;;;;;;9.32;2.55;;;;;;;21.19;37.67;100344.66;5031089;28;20052;-67
2021/03/31 00:53:35;;;;;;;11.27;2.25;;;;;;;21.33;37.50;100352.78;5003094;28;20061;-67
2021/03/31 00:56:03;;;;;;;8.48;2.45;;;;;;;21.28;37.60;100351.84;5016507;28;20046;-66
2021/03/31 00:58:30;;;;;;;13.38;3.10;;;;;;;21.38;37.48;100353.41;5008750;28;20176;-67
2021/03/31 01:00:56;;;;;;;8.00;2.40;;;;;;;21.40;37.19;100351.06;5014696;28;20042;-66
2021/03/31 01:03:23;;;;;;;7.18;2.20;;;;;;;21.08;37.15;100303.75;5022219;28;20038;-67
2021/03/31 01:05:49;;;;;;;9.07;2.65;;;;;;;21.32;37.14;100332.09;5014245;28;20045;-66
2021/03/31 01:08:15;;;;;;;12.38;4.20;;;;;;;21.40;37.17;100334.00;5014927;28;20488;-67
2021/03/31 01:10:48;;;;;;;2.15;1.67;;;;;;;21.34;36.99;100326.91;5019525;28;20168;-74
2021/03/31 01:14:08;;;;;;;6.57;2.95;;;;;;;21.36;37.00;100326.53;5015984;28;20053;-75
2021/03/31 01:16:41;;;;;;;5.85;1.80;;;;;;;21.34;36.70;100323.22;4932821;29;20146;-72
2021/03/31 01:19:45;;;;;;;12.20;3.45;;;;;;;21.40;36.59;100318.94;4933302;29;20130;-72
2021/03/31 01:22:48;;;;;;;10.18;3.17;;;;;;;21.39;36.45;100315.28;4995850;28;20041;-72
2021/03/31 01:25:25;;;;;;;19.83;2.97;;;;;;;21.42;36.51;100308.88;5021970;28;20041;-73
2021/03/31 01:28:03;;;;;;;6.72;2.78;;;;;;;21.44;36.38;100312.22;5017382;28;20574;-72
2021/03/31 01:30:44;;;;;;;6.63;2.25;;;;;;;21.42;36.50;100313.75;5017702;28;20090;-78
2021/03/31 01:33:30;;;;;;;8.43;2.63;;;;;;;21.45;36.45;100313.84;5026777;28;20064;-79
2021/03/31 01:35:57;;;;;;;7.30;3.13;;;;;;;21.34;36.49;100283.44;5004344;28;20551;-78
2021/03/31 01:38:27;;;;;;;7.88;2.50;;;;;;;21.38;36.54;100285.22;5016167;28;20140;-74
2021/03/31 01:40:55;;;;;;;;;;;;;;;21.40;36.27;100293.38;5018878;28;20581;-73
2021/03/31 01:43:24;;;;;;;8.52;2.50;;;;;;;21.37;36.46;100277.06;5020081;28;19931;-75
2021/03/31 01:45:55;;;;;;;18.35;5.15;;;;;;;21.34;36.59;100280.63;5014257;28;20081;-75
2021/03/31 01:48:25;;;;;;;8.25;2.40;;;;;;;21.24;36.57;100267.75;5019392;28;20472;-74
2021/03/31 01:50:58;;;;;;;10.88;3.15;;;;;;;21.31;36.42;100273.63;5023486;28;20490;-75
2021/03/31 01:53:25;;;;;;;6.65;2.60;;;;;;;21.16;36.59;100261.03;5031658;28;20067;-73
2021/03/31 01:55:54;;;;;;;4.00;1.88;;;;;;;21.23;36.65;100263.22;5041192;28;20041;-72
2021/03/31 01:58:22;;;;;;;11.55;2.47;;;;;;;21.16;36.82;100249.66;5038241;28;20055;-71
2021/03/31 02:00:49;;;;;;;6.35;2.58;;;;;;;21.24;36.55;100257.19;5039944;28;20048;-72
2021/03/31 02:03:19;;;;;;;16.35;3.70;;;;;;;21.13;36.66;100255.22;5038778;28;20041;-67
2021/03/31 02:05:46;;;;;;;8.75;2.28;;;;;;;21.14;36.57;100260.53;5043335;28;20056;-70
2021/03/31 02:08:14;;;;;;;7.28;2.80;;;;;;;21.13;36.35;100253.22;5039257;28;20050;-70
2021/03/31 02:10:42;;;;;;;6.93;2.33;;;;;;;21.19;36.02;100248.09;5042672;28;20053;-70
2021/03/31 02:13:10;;;;;;;6.10;2.83;;;;;;;21.19;36.28;100231.88;5037988;28;20124;-67
2021/03/31 02:15:38;;;;;;;9.75;2.25;;;;;;;21.15;36.27;100248.00;5038548;28;20541;-68
2021/03/31 02:18:07;;;;;;;7.35;2.40;;;;;;;21.18;36.13;100240.78;5037761;28;20053;-67
2021/03/31 02:20:35;;;;;;;17.17;2.92;;;;;;;21.22;36.06;100239.69;5041218;28;20049;-69
2021/03/31 02:23:03;;;;;;;14.25;3.40;;;;;;;21.20;35.97;100238.41;5037375;28;20050;-67
2021/03/31 02:25:30;;;;;;;2.78;1.55;;;;;;;21.25;35.86;100243.81;5040847;28;20048;-68
2021/03/31 02:27:57;;;;;;;9.45;2.47;;;;;;;21.22;36.03;100241.69;5043963;28;20056;-68
2021/03/31 02:30:26;;;;;;;8.68;3.15;;;;;;;21.33;35.71;100230.66;5037152;28;20099;-68
2021/03/31 02:32:59;;;;;;;11.70;2.70;;;;;;;21.26;35.65;100211.38;5035407;28;20079;-66
2021/03/31 02:35:29;;;;;;;13.50;3.75;;;;;;;21.23;35.50;100212.09;5036998;28;20461;-67
2021/03/31 02:38:02;;;;;;;9.98;2.45;;;;;;;21.23;35.86;100215.81;5042998;28;20049;-67
2021/03/31 02:40:29;;;;;;;26.77;4.68;;;;;;;21.24;35.89;100222.31;5032213;28;20129;-67
2021/03/31 02:42:58;;;;;;;7.05;2.05;;;;;;;20.89;36.00;100160.44;5034648;28;20482;-68
2021/03/31 02:45:26;;;;;;;16.88;2.42;;;;;;;21.23;35.91;100206.44;5039785;28;20099;-68
2021/03/31 02:47:54;;;;;;;9.07;2.45;;;;;;;21.15;35.71;100184.69;5033900;28;20510;-68
2021/03/31 02:50:23;;;;;;;7.03;2.65;;;;;;;21.28;35.50;100206.19;5032989;28;20120;-68
2021/03/31 02:52:52;;;;;;;10.73;2.63;;;;;;;21.19;35.92;100202.66;5040265;28;20542;-67
2021/03/31 02:55:21;;;;;;;7.60;2.85;;;;;;;21.15;35.79;100177.00;5039404;28;20486;-69
2021/03/31 02:57:48;;;;;;;;;;;;;;;21.15;35.51;100193.22;5036268;28;20135;-69
2021/03/31 03:00:15;;;;;;;11.15;4.05;;;;;;;21.20;35.56;100198.66;5037388;28;19927;-69
2021/03/31 03:02:44;;;;;;;3.20;1.58;;;;;;;21.22;35.43;100196.25;5039269;28;20042;-67
2021/03/31 03:05:13;;;;;;;7.57;2.65;;;;;;;21.26;35.40;100192.38;5039121;28;20056;-67
2021/03/31 03:07:40;;;;;;;12.27;2.92;;;;;;;21.40;35.28;100182.59;5037434;28;20053;-67
2021/03/31 03:10:09;;;;;;;13.30;3.28;;;;;;;21.41;35.11;100179.41;5038011;28;20049;-67
2021/03/31 03:12:47;;;;;;;14.35;3.38;;;;;;;21.33;34.92;100156.81;5031388;28;20049;-67
2021/03/31 03:15:16;;;;;;;14.73;2.95;;;;;;;21.43;35.19;100165.66;5037859;28;20055;-67
2021/03/31 03:17:43;;;;;;;4.63;1.90;;;;;;;21.37;34.93;100152.94;5038191;28;20493;-67
2021/03/31 03:20:11;;;;;;;13.48;3.88;;;;;;;21.46;34.98;100162.09;5036184;28;20073;-72
2021/03/31 03:22:39;;;;;;;15.38;3.45;;;;;;;21.44;34.81;100155.97;5034080;28;20053;-72
2021/03/31 03:25:09;;;;;;;3.80;1.50;;;;;;;21.34;34.95;100167.84;5035822;28;20087;-72
2021/03/31 03:27:38;;;;;;;8.35;2.67;;;;;;;21.29;34.88;100162.38;5040168;28;20060;-72
2021/03/31 03:30:07;;;;;;;17.30;3.17;;;;;;;21.42;34.89;100172.53;5038366;28;20037;-70
2021/03/31 03:32:34;;;;;;;8.30;3.15;;;;;;;21.36;34.86;100168.31;5034765;28;20049;-71
2021/03/31 03:35:02;;;;;;;3.28;1.15;;;;;;;21.29;35.12;100174.56;5040843;28;20128;-74
2021/03/31 03:37:29;;;;;;;11.40;2.88;;;;;;;21.33;35.11;100163.31;5037276;28;20409;-75
2021/03/31 03:39:56;;;;;;;11.70;2.35;;;;;;;21.37;34.99;100164.28;5039466;28;20079;-69
2021/03/31 03:42:22;;;;;;;11.90;2.90;;;;;;;21.32;34.80;100177.88;5038234;28;20136;-68
2021/03/31 03:44:48;;;;;;;11.15;3.83;;;;;;;21.30;34.96;100161.22;5036324;28;20041;-67
2021/03/31 03:47:17;;;;;;;8.07;3.25;;;;;;;21.43;34.70;100182.69;5033972;28;20069;-69
2021/03/31 03:49:43;;;;;;;17.88;3.08;;;;;;;21.39;34.84;100195.97;5041103;28;20052;-69
2021/03/31 03:52:10;;;;;;;11.23;3.22;;;;;;;21.38;34.91;100199.19;5033133;28;20056;-66
2021/03/31 03:54:37;;;;;;;4.35;2.20;;;;;;;21.45;34.77;100188.84;5036559;28;20044;-68
2021/03/31 03:57:04;;;;;;;9.18;2.58;;;;;;;21.38;34.79;100182.97;5041379;28;20055;-67
2021/03/31 03:59:30;;;;;;;6.25;2.28;;;;;;;21.44;34.73;100192.91;5032142;28;20053;-67
2021/03/31 04:01:57;;;;;;;15.00;2.40;;;;;;;21.48;34.72;100204.34;5033640;28;20052;-69
2021/03/31 04:04:23;;;;;;;6.43;2.40;;;;;;;21.38;34.84;100200.03;5039330;28;20069;-68
2021/03/31 04:06:50;;;;;;;13.93;3.58;;;;;;;21.19;34.91;100192.13;5036807;28;20490;-68
2021/03/31 04:09:16;;;;;;;11.90;3.38;;;;;;;21.38;34.92;100228.44;5033840;28;20049;-67
2021/03/31 04:11:46;;;;;;;13.10;3.25;;;;;;;21.34;34.99;100216.13;5038897;28;20077;-67
2021/03/31 04:14:13;;;;;;;13.80;3.83;;;;;;;21.33;34.82;100214.44;5034393;28;20047;-64
2021/03/31 04:16:44;;;;;;;14.23;3.05;;;;;;;21.23;34.84;100207.28;5032362;28;20486;-64
2021/03/31 04:19:15;;;;;;;18.20;3.97;;;;;;;21.38;35.07;100222.75;5031968;28;20470;-65
2021/03/31 04:21:42;;;;;;;7.30;2.75;;;;;;;21.40;35.10;100231.75;5032847;28;20386;-65
2021/03/31 04:24:15;;;;;;;8.88;2.70;;;;;;;21.36;34.98;100219.44;5038020;28;20130;-62
2021/03/31 04:26:44;;;;;;;8.50;2.90;;;;;;;21.26;34.99;100212.25;5032773;28;20140;-63
2021/03/31 04:29:12;;;;;;;7.32;3.05;;;;;;;21.26;35.06;100206.56;5031630;28;20048;-68
2021/03/31 04:31:41;;;;;;;9.73;2.85;;;;;;;21.29;35.28;100224.88;5039450;28;20053;-66
2021/03/31 04:34:09;;;;;;;12.40;3.20;;;;;;;21.21;35.36;100212.47;5033837;28;20069;-67
2021/03/31 04:36:36;;;;;;;10.80;2.97;;;;;;;21.01;35.36;100183.09;5034090;28;20042;-69
2021/03/31 04:39:05;;;;;;;12.75;4.72;;;;;;;21.20;35.64;100210.03;5033289;28;20540;-70
2021/03/31 04:41:33;;;;;;;14.45;2.33;;;;;;;21.05;35.78;100192.53;5043697;28;20049;-69
2021/03/31 04:43:59;;;;;;;8.50;3.28;;;;;;;21.11;35.84;100207.31;5031736;28;20045;-72
2021/03/31 04:46:26;;;;;;;18.05;3.88;;;;;;;21.08;35.85;100208.03;5033996;28;20046;-69
2021/03/31 04:48:52;;;;;;;11.07;3.72;;;;;;;20.90;35.96;100196.16;5039741;28;20123;-69
2021/03/31 04:51:19;;;;;;;15.52;4.15;;;;;;;20.94;36.14;100197.06;5034037;28;20056;-68
2021/03/31 04:53:45;;;;;;;7.72;2.95;;;;;;;20.80;36.21;100185.28;5036834;28;20406;-70
2021/03/31 04:56:12;;;;;;;11.43;3.45;;;;;;;20.86;36.36;100195.22;5033722;28;20049;-69
2021/03/31 04:58:38;;;;;;;11.55;2.88;;;;;;;20.71;36.31;100176.91;5032323;28;20516;-69
2021/03/31 05:01:05;;;;;;;3.78;2.15;;;;;;;20.71;36.22;100181.75;5032062;28;20518;-72
2021/03/31 05:03:34;;;;;;;8.63;2.70;;;;;;;20.70;36.23;100182.97;5037542;28;20049;-70
2021/03/31 05:06:00;;;;;;;10.50;3.88;;;;;;;20.74;36.29;100186.72;5038974;28;20114;-61
2021/03/31 05:08:27;;;;;;;7.05;2.25;;;;;;;20.62;36.87;100176.25;5034685;28;20058;-68
2021/03/31 05:10:53;;;;;;;5.15;2.60;;;;;;;20.68;36.57;100188.97;5038276;28;20110;-68
2021/03/31 05:13:20;;;;;;;11.93;3.25;;;;;;;20.62;36.36;100166.91;5039647;28;20056;-66
2021/03/31 05:15:46;;;;;;;15.93;3.30;;;;;;;20.74;36.19;100186.72;5040072;28;20391;-66
2021/03/31 05:18:13;;;;;;;11.40;3.47;;;;;;;20.71;36.16;100201.63;5033713;28;20049;-63
2021/03/31 05:20:40;;;;;;;8.95;2.13;;;;;;;20.62;36.36;100184.75;5037429;28;20041;-80
2021/03/31 05:23:07;;;;;;;14.45;2.70;;;;;;;20.67;36.30;100183.66;5034847;28;20052;-74
2021/03/31 05:25:33;;;;;;;5.20;1.60;;;;;;;20.54;36.26;100174.34;5037600;28;20055;-77
2021/03/31 05:28:00;;;;;;;8.82;2.17;;;;;;;20.64;36.15;100188.03;5031669;28;20050;-71
2021/03/31 05:30:27;;;;;;;7.85;2.72;;;;;;;20.57;36.00;100171.63;5032387;28;20045;-67
2021/03/31 05:32:53;;;;;;;5.40;2.97;;;;;;;20.59;36.03;100200.47;5038001;28;20057;-78
2021/03/31 05:35:21;;;;;;;8.05;2.08;;;;;;;20.59;35.82;100191.97;5034803;28;20037;-69
2021/03/31 05:37:48;;;;;;;7.05;1.58;;;;;;;20.58;35.74;100178.97;5034975;28;20055;-71
2021/03/31 05:40:15;;;;;;;8.05;2.25;;;;;;;20.56;35.69;100172.81;5039473;28;20044;-67
2021/03/31 05:42:43;;;;;;;4.35;1.73;;;;;;;20.69;35.69;100179.28;5037230;28;20111;-76
2021/03/31 05:45:12;;;;;;;3.20;1.75;;;;;;;20.69;35.52;100178.47;5034584;28;20542;-65
2021/03/31 05:47:42;;;;;;;18.20;2.55;;;;;;;20.74;35.27;100186.72;5036174;28;20413;-73
2021/03/31 05:50:12;;;;;;;5.10;2.67;;;;;;;20.67;35.46;100186.50;5048911;28;20395;-63
2021/03/31 05:52:38;;;;;;;;;;;;;;;20.36;35.23;100188.75;5037290;28;20056;-73
2021/03/31 05:55:07;;;;;;;6.35;1.85;;;;;;;20.51;35.11;100178.75;5036330;28;19967;-67
2021/03/31 05:57:35;;;;;;;13.00;3.17;;;;;;;20.62;35.15;100184.75;5035774;28;20069;-66
2021/03/31 06:00:32;;;;;;;12.50;2.70;;;;;;;20.49;35.02;100181.06;5037802;28;20045;-66
2021/03/31 06:03:03;;;;;;;3.67;1.20;;;;;;;20.55;34.89;100178.84;5035191;28;20128;-64
2021/03/31 06:05:31;;;;;;;2.55;1.33;;;;;;;20.54;34.81;100183.69;5034423;28;20482;-77
2021/03/31 06:08:02;;;;;;;9.90;2.05;;;;;;;20.55;34.77;100184.53;5039932;28;20118;-67
2021/03/31 06:10:29;;;;;;;2.53;1.38;;;;;;;20.55;34.72;100170.34;5036841;28;20501;-64
2021/03/31 06:13:01;;;;;;;6.10;2.03;;;;;;;20.63;34.73;100194.09;5040616;28;20460;-75
2021/03/31 06:15:41;;;;;;;5.53;2.35;;;;;;;20.58;34.36;100173.28;5039391;28;20042;-69
2021/03/31 06:18:09;;;;;;;4.53;1.48;;;;;;;20.55;34.66;100185.34;5036675;28;20057;-69
2021/03/31 06:20:39;;;;;;;4.25;2.58;;;;;;;20.63;34.59;100185.56;5038897;28;20045;-65
2021/03/31 06:28:38;;;;;;;3.63;1.75;;;;;;;20.48;34.25;100156.72;5035946;28;20050;-64
2021/03/31 06:31:28;;;;;;;5.75;2.28;;;;;;;20.57;34.38;100165.94;5033592;28;20054;-62
2021/03/31 06:33:56;;;;;;;4.45;2.30;;;;;;;20.66;34.51;100184.84;5038498;28;20491;-62
2021/03/31 06:36:37;;;;;;;13.75;2.95;;;;;;;20.53;34.50;100178.38;5040676;28;20167;-62
2021/03/31 06:39:17;;;;;;;4.45;2.28;;;;;;;20.50;34.38;100191.25;5040453;28;20045;-63
2021/03/31 06:41:58;;;;;;;2.42;1.25;;;;;;;20.59;34.20;100183.44;5032280;28;20044;-63
2021/03/31 06:44:53;;;;;;;7.85;2.15;;;;;;;20.67;34.19;100180.84;5040420;28;20064;-62
2021/03/31 06:49:49;;;;;;;9.50;2.92;;;;;;;20.58;34.16;100166.75;5044595;28;20078;-63
2021/03/31 06:52:16;;;;;;;11.25;2.05;;;;;;;20.63;34.21;100174.22;5035085;28;20045;-63
2021/03/31 06:54:58;;;;;;;16.13;3.05;;;;;;;20.72;33.99;100177.75;5034783;28;20049;-62
2021/03/31 06:57:26;;;;;;;15.18;2.97;;;;;;;20.82;33.94;100195.09;5038308;28;20087;-64
2021/03/31 07:00:00;;;;;;;12.65;3.35;;;;;;;20.78;33.98;100181.97;5038565;28;20045;-67
2021/03/31 07:02:29;;;;;;;6.32;2.67;;;;;;;20.92;33.91;100181.59;5039607;28;20053;-64
2021/03/31 07:04:56;;;;;;;8.57;1.95;;;;;;;20.95;33.70;100197.91;5036256;28;20481;-64
2021/03/31 07:07:30;;;;;;;2.35;1.58;;;;;;;20.85;33.96;100192.72;5038061;28;20077;-63
2021/03/31 07:10:09;;;;;;;13.00;2.88;;;;;;;20.97;33.46;100199.19;5042868;28;20045;-63
2021/03/31 07:12:44;;;;;;;9.85;3.00;;;;;;;20.98;33.45;100203.69;5036203;28;20072;-63
2021/03/31 07:15:13;;;;;;;11.52;2.97;;;;;;;21.10;33.57;100199.16;5022904;28;20137;-63
2021/03/31 07:17:52;;;;;;;7.82;4.30;;;;;;;21.13;33.05;100202.13;5038501;28;20092;-63
2021/03/31 07:20:19;;;;;;;9.63;2.22;;;;;;;21.15;33.06;100190.38;5035376;28;20049;-63
2021/03/31 07:22:45;;;;;;;5.68;2.42;;;;;;;21.35;32.89;100182.88;5036524;28;20045;-63
2021/03/31 07:25:13;;;;;;;3.72;2.17;;;;;;;21.49;32.97;100195.47;5037521;28;20481;-63
2021/03/31 07:27:39;;;;;;;14.80;3.28;;;;;;;;;;5039332;28;20045;-63
2021/03/31 07:30:13;;;;;;;7.53;1.80;;;;;;;21.75;32.59;100194.16;5022399;28;20041;-62
2021/03/31 07:33:18;;;;;;;13.13;2.83;;;;;;;21.78;32.58;100199.09;5039031;28;20061;-64
2021/03/31 07:35:46;;;;;;;14.50;3.35;;;;;;;21.89;32.22;100191.66;5033650;28;20164;-61
2021/03/31 07:38:18;;;;;;;7.63;4.28;;;;;;;22.00;31.96;100198.47;5038737;28;20141;-62
2021/03/31 07:40:49;;;;;;;6.93;2.85;;;;;;;22.09;31.95;100203.16;5031863;28;20091;-62
2021/03/31 07:43:21;;;;;;;8.90;2.78;;;;;;;22.19;31.61;100196.94;5037175;28;20079;-63
2021/03/31 07:46:08;;;;;;;3.85;2.97;;;;;;;22.16;31.59;100200.53;5032260;28;20137;-66
2021/03/31 07:48:37;;;;;;;5.57;1.15;;;;;;;22.27;31.43;100201.59;5034293;28;20052;-61
2021/03/31 07:51:18;;;;;;;8.60;2.50;;;;;;;22.35;31.24;100179.84;5040584;28;20072;-63
2021/03/31 07:53:46;;;;;;;8.23;2.22;;;;;;;22.43;31.31;100204.44;5038108;28;20502;-62
2021/03/31 07:56:16;;;;;;;11.35;1.92;;;;;;;22.44;31.11;100192.69;5037909;28;20400;-62
2021/03/31 07:59:06;;;;;;;9.07;2.67;;;;;;;22.28;30.99;100197.56;5036353;28;20043;-62
2021/03/31 08:01:41;;;;;;;11.68;2.45;;;;;;;22.46;31.01;100193.16;5037531;28;20136;-62
2021/03/31 08:04:09;;;;;;;5.20;1.35;;;;;;;22.44;30.82;100189.84;5038282;28;20044;-62
2021/03/31 08:06:37;;;;;;;12.93;3.83;;;;;;;22.55;31.16;100192.09;5031764;28;20046;-62
2021/03/31 08:09:11;;;;;;;10.20;2.72;;;;;;;22.68;30.88;100193.63;5036047;28;20045;-63
2021/03/31 08:11:40;;;;;;;8.25;2.53;;;;;;;22.87;30.50;100189.97;5040348;28;20072;-64
2021/03/31 08:14:07;;;;;;;16.40;2.45;;;;;;;22.98;30.18;100201.66;5038965;28;20144;-62
2021/03/31 08:16:41;;;;;;;13.65;2.78;;;;;;;23.11;30.20;100186.06;5032086;28;20437;-60
2021/03/31 08:19:16;;;;;;;7.88;2.78;;;;;;;23.09;29.98;100185.63;5032426;28;20461;-62
2021/03/31 08:21:45;;;;;;;17.63;2.92;;;;;;;23.23;29.99;100180.22;5034469;28;20053;-61
2021/03/31 08:24:15;;;;;;;11.25;2.40;;;;;;;23.05;29.95;100187.56;5035808;28;20050;-62
2021/03/31 08:26:43;;;;;;;2.95;2.30;;;;;;;22.78;30.03;100158.91;5041547;28;20493;-62
2021/03/31 08:29:18;;;;;;;19.35;3.55;;;;;;;22.88;30.21;100175.38;5028445;28;20085;-63
2021/03/31 08:32:00;;;;;;;14.40;2.88;;;;;;;23.13;29.94;100175.94;5041085;28;20056;-64
2021/03/31 08:34:29;;;;;;;11.60;2.42;;;;;;;23.13;29.93;100169.44;5022926;28;20059;-62
2021/03/31 08:36:57;;;;;;;8.10;1.50;;;;;;;23.22;29.85;100177.75;5040829;28;20068;-63
2021/03/31 08:39:23;;;;;;;8.02;3.05;;;;;;;23.23;29.71;100137.50;5037335;28;20464;-64
2021/03/31 08:41:53;;;;;;;7.20;3.30;;;;;;;23.56;29.40;100171.13;5038383;28;20170;-62
2021/03/31 08:44:35;;;;;;;11.30;3.22;;;;;;;23.84;29.05;100164.31;5036836;28;20589;-63
2021/03/31 08:47:13;;;;;;;12.10;1.88;;;;;;;24.21;28.64;100172.31;5033944;28;20041;-63
2021/03/31 08:49:41;;;;;;;10.88;3.53;;;;;;;24.38;28.27;100168.09;5036823;28;20053;-63
2021/03/31 08:52:11;;;;;;;6.78;2.28;;;;;;;24.60;28.39;100175.78;5034299;28;20049;-62
2021/03/31 08:54:39;;;;;;;;;;;;;;;24.50;28.34;100176.44;5039823;28;20156;-65
2021/03/31 08:57:09;;;;;;;7.03;2.40;;;;;;;24.78;28.12;100181.75;5031866;28;19921;-64
2021/03/31 08:59:37;;;;;;;;;;;;;;;24.76;27.97;100185.00;5024344;28;20053;-64
2021/03/31 09:02:05;;;;;;;14.40;3.88;;;;;;;25.06;27.33;100167.06;5042724;28;19929;-63
2021/03/31 09:04:32;;;;;;;12.38;4.15;;;;;;;25.46;27.00;100168.34;5036533;28;20493;-64
2021/03/31 09:07:02;;;;;;;11.68;3.55;;;;;;;25.69;27.16;100166.16;5038142;28;20053;-63
2021/03/31 09:09:34;;;;;;;9.80;3.17;;;;;;;25.63;26.95;100164.88;5028240;28;20516;-64
2021/03/31 09:12:16;;;;;;;8.40;2.60;;;;;;;25.77;26.67;100164.19;5034605;28;20037;-63
2021/03/31 09:14:46;;;;;;;7.22;2.75;;;;;;;25.62;26.28;100157.50;5034918;28;20056;-63
2021/03/31 09:17:33;;;;;;;6.20;2.15;;;;;;;25.42;26.62;100162.59;5036413;28;20057;-64
2021/03/31 09:20:11;;;;;;;16.80;4.22;;;;;;;25.52;27.08;100152.50;5037660;28;20183;-63
2021/03/31 09:22:38;;;;;;;7.47;2.75;;;;;;;25.88;26.57;100167.19;5027515;28;20457;-64
2021/03/31 09:25:10;;;;;;;8.48;2.55;;;;;;;25.50;27.33;100152.91;5040747;28;20498;-63
2021/03/31 09:27:56;;;;;;;18.95;4.35;;;;;;;25.26;27.34;100159.13;5043083;28;20061;-63
2021/03/31 09:30:24;;;;;;;12.43;4.07;;;;;;;25.27;27.69;100158.78;5038283;28;20490;-63
2021/03/31 09:32:59;;;;;;;4.28;2.22;;;;;;;25.26;27.56;100160.00;5039073;28;20052;-64
2021/03/31 09:35:28;;;;;;;11.48;4.45;;;;;;;25.15;27.74;100152.47;5037755;28;20053;-62
2021/03/31 09:37:56;;;;;;;13.70;4.47;;;;;;;25.28;27.74;100166.13;5038524;28;20538;-64
2021/03/31 09:40:37;;;;;;;11.40;4.87;;;;;;;25.20;27.51;100143.59;5041023;28;20049;-62
2021/03/31 09:43:07;;;;;;;6.15;2.72;;;;;;;25.16;27.53;100154.97;5040716;28;20038;-64
2021/03/31 09:45:37;;;;;;;15.40;4.22;;;;;;;25.42;27.18;100139.75;5040032;28;20049;-62
2021/03/31 09:48:06;;;;;;;24.98;5.05;;;;;;;25.87;26.79;100129.19;5041517;28;20045;-62
2021/03/31 09:50:36;;;;;;;18.38;4.43;;;;;;;26.16;26.02;100141.69;5038198;28;20084;-63
2021/03/31 09:53:06;;;;;;;10.60;3.65;;;;;;;26.32;25.59;100118.50;5035374;28;20140;-62
2021/03/31 09:55:34;;;;;;;8.82;2.85;;;;;;;26.43;25.32;100130.03;5039298;28;20053;-63
2021/03/31 09:58:02;;;;;;;2.92;2.15;;;;;;;26.66;25.14;100122.00;5038317;28;20405;-63
2021/03/31 10:00:28;;;;;;;21.70;4.28;;;;;;;27.21;24.91;100123.91;5038534;28;20056;-64
2021/03/31 10:02:55;;;;;;;6.20;2.08;;;;;;;27.36;24.37;100122.75;5037251;28;20127;-63
2021/03/31 10:05:27;;;;;;;12.65;3.35;;;;;;;27.45;24.39;100121.53;5041256;28;20060;-62
2021/03/31 10:08:06;;;;;;;11.05;3.65;;;;;;;27.33;24.10;100103.50;5038921;28;20130;-63
2021/03/31 10:10:46;;;;;;;7.10;3.08;;;;;;;27.38;23.83;100105.13;5041647;28;20453;-64
2021/03/31 10:13:15;;;;;;;13.77;3.50;;;;;;;27.35;24.22;100103.06;5038583;28;20052;-63
2021/03/31 10:15:46;;;;;;;16.10;4.38;;;;;;;27.55;23.58;100095.75;5037836;28;20506;-63
2021/03/31 10:18:14;;;;;;;8.00;3.00;;;;;;;27.86;23.76;100102.78;5038815;28;20048;-61
2021/03/31 10:20:48;;;;;;;14.75;3.67;;;;;;;27.96;23.00;100089.63;5038133;28;20470;-61
2021/03/31 10:23:34;;;;;;;17.90;3.70;;;;;;;28.14;22.89;100104.00;5039251;28;20049;-64
2021/03/31 10:26:30;;;;;;;10.88;3.17;;;;;;;28.30;22.78;100092.06;5035549;28;20100;-63
2021/03/31 10:29:19;;;;;;;15.05;3.85;;;;;;;28.24;22.39;100059.25;5041879;28;20048;-64
2021/03/31 10:32:05;;;;;;;17.50;3.35;;;;;;;28.49;22.07;100062.94;5036784;28;20512;-63
2021/03/31 10:34:48;;;;;;;16.13;3.95;;;;;;;29.14;22.20;100077.06;5039167;28;20050;-63
2021/03/31 10:40:31;;;;;;;18.42;2.90;;;;;;;28.75;21.59;100072.28;5034220;28;20742;-64
2021/03/31 10:54:14;;;;;;;8.25;2.72;;;;;;;29.79;21.60;100037.19;5036083;28;20125;-65
2021/03/31 10:56:50;;;;;;;11.18;3.00;;;;;;;29.89;21.11;100050.69;5037279;28;20409;-63
2021/03/31 10:59:16;;;;;;;7.50;2.92;;;;;;;29.75;21.29;100037.22;5038112;28;20041;-64
2021/03/31 11:01:43;;;;;;;13.73;3.15;;;;;;;29.56;21.05;100040.63;5039041;28;20587;-62
2021/03/31 11:04:10;;;;;;;9.30;3.05;;;;;;;29.25;21.23;100021.13;5032755;28;20050;-62
2021/03/31 11:06:36;;;;;;;16.73;4.40;;;;;;;29.34;21.56;100032.16;5040458;28;20512;-63
2021/03/31 11:09:03;;;;;;;11.68;3.25;;;;;;;29.66;21.67;100020.44;5037247;28;20041;-62
2021/03/31 11:11:31;;;;;;;19.10;3.83;;;;;;;30.18;21.25;100023.25;5036435;28;20049;-63
2021/03/31 11:13:57;;;;;;;8.75;3.97;;;;;;;30.41;20.88;100027.53;5036609;28;20051;-63
2021/03/31 11:16:25;;;;;;;12.77;4.38;;;;;;;30.55;20.19;100035.19;5039401;28;20517;-64
2021/03/31 11:25:32;;;;;;;17.95;3.95;;;;;;;30.93;20.29;100019.47;5032380;28;20049;-64
2021/03/31 11:27:25;;;;;;;6.78;2.15;;;;;;;30.61;19.91;100010.44;5039350;28;20472;-63
2021/03/31 11:29:51;;;;;;;13.98;3.42;;;;;;;30.57;19.91;100003.91;5033906;28;20089;-64
2021/03/31 11:32:18;;;;;;;8.73;2.65;;;;;;;30.32;19.98;100007.06;5036246;28;20144;-63
2021/03/31 11:34:44;;;;;;;12.05;3.00;;;;;;;30.14;20.09;100022.44;5039429;28;20045;-62
2021/03/31 11:37:10;;;;;;;17.08;4.35;;;;;;;30.36;19.85;100005.78;5040235;28;20049;-62
2021/03/31 11:39:37;;;;;;;7.55;3.05;;;;;;;30.47;19.75;100011.41;5039095;28;20042;-65
2021/03/31 11:42:03;;;;;;;13.20;3.75;;;;;;;30.97;19.95;99995.56;5036912;28;20077;-63
2021/03/31 11:44:29;;;;;;;11.93;3.13;;;;;;;31.44;19.40;99989.94;5036580;28;20081;-64
2021/03/31 11:46:57;;;;;;;18.10;5.15;;;;;;;31.91;19.07;99981.31;5037151;28;20413;-63
2021/03/31 11:49:24;;;;;;;11.15;3.30;;;;;;;32.36;18.23;99980.84;5038866;28;20053;-64
2021/03/31 11:51:50;;;;;;;18.52;3.58;;;;;;;32.62;17.97;99982.00;5035962;28;20053;-63
2021/03/31 11:54:17;;;;;;;14.30;4.50;;;;;;;32.57;17.94;99980.41;5039452;28;20045;-64
2021/03/31 11:56:43;;;;;;;10.35;4.50;;;;;;;32.29;18.11;99988.38;5036635;28;20045;-63
2021/03/31 11:59:09;;;;;;;15.20;3.85;;;;;;;31.51;17.91;99976.19;5033078;28;20052;-64
2021/03/31 12:01:39;;;;;;;19.95;4.35;;;;;;;31.33;18.80;99973.59;5040664;28;20041;-64
2021/03/31 12:04:06;;;;;;;15.25;3.30;;;;;;;31.50;18.50;99962.22;5026607;28;20045;-62
2021/03/31 12:06:32;;;;;;;15.23;4.40;;;;;;;32.51;18.08;99956.19;5039359;28;20050;-63
2021/03/31 12:08:58;;;;;;;9.20;3.47;;;;;;;33.34;17.69;99944.38;5038255;28;20060;-63